logo
Rechercher aéroport 
image banner adimage banner adimage banner ad
image banner ad

CA615 - Quebec(Surete Du Quebec)(Csq2)

Situé à , Canada

ICAO - , IATA -

Données fournies par Airmate  

Information générale

Coordonnées: N46°50'2" W71°17'2"
Élévation : feet MSL.
 
Voir autres Aéroports à Quebec

Données opérationnelles

Special qualification required
Heure actuelle UTC:
Heure actuelle locale:
Météo à : CYQB - Quebec/Jean Lesage Intl ( 10 km )
METAR: CYQB 070200Z 01003KT 15SM FEW030 M14/M16 A3037 RMK SC2 SLP291
TAF: TAF CYQB 062340Z 0700/0724 07008KT P6SM SKC FM070900 07008KT P6SM FEW010 FM071700 08010KT P6SM BKN200 FM072300 05008KT 2 1/2SM -SN FEW025 OVC040 RMK NXT FCST BY 070600Z
Voir NOTAMs / SUP AIP / TFR affectant cet aéroport [VIEW]
Fréquences de communication: [VIEW]

Pistes:

Coordonnées de l'aéroport

Adresse: Canada

Vue satellite de CA615